Time;durP1;ratioP1;P1;durP2;ratioP2;P2;SDS_P1;SDS_P2;PMS_P1;PMS_P2;Temp;Humidity;BMP_temperature;BMP_pressure;BME280_temperature;BME280_humidity;BME280_pressure;Samples;Min_cycle;Max_cycle;Signal;HPM_P1;HPM_P2
2022/05/11 00:00:06;;;;;;;;;;;;;;;16.02;52.36;99960.72;4397206;32;20433;-70
2022/05/11 00:02:32;;;;;;;;;;;;;;;16.21;52.05;99955.56;4396773;32;20005;-70
2022/05/11 00:04:58;;;;;;;;;;;;;;;16.24;51.58;99951.75;4396270;32;20342;-70
2022/05/11 00:07:23;;;;;;;;;;;;;;;16.35;51.34;99953.94;4397546;32;19965;-70
2022/05/11 00:09:51;;;;;;;;;;;;;;;16.44;50.97;99943.25;4397819;32;20005;-70
2022/05/11 00:12:23;;;;;;;;;;;;;;;16.51;50.76;99956.25;4394495;32;20031;-70
2022/05/11 00:14:48;;;;;;;;;;;;;;;16.44;50.77;99945.31;4397133;32;20005;-70
2022/05/11 00:17:14;;;;;;;;;;;;;;;16.33;51.07;99945.13;4396852;32;20008;-70
2022/05/11 00:19:40;;;;;;;;;;;;;;;16.27;50.94;99942.25;4395921;32;20004;-70
2022/05/11 00:22:05;;;;;;;;;;;;;;;16.40;50.60;99933.34;4394596;32;20013;-70
2022/05/11 00:24:31;;;;;;;;;;;;;;;16.38;50.53;99936.69;4393351;32;20432;-70
2022/05/11 00:27:00;;;;;;;;;;;;;;;16.41;50.42;99930.00;4397116;32;20008;-70
2022/05/11 00:29:26;;;;;;;;;;;;;;;16.47;50.22;99913.84;4396721;32;20366;-70
2022/05/11 00:31:51;;;;;;;;;;;;;;;16.37;50.31;99915.25;4395642;32;20005;-70
2022/05/11 00:34:16;;;;;;;;;;;;;;;16.31;50.64;99919.28;4397798;32;20040;-70
2022/05/11 00:36:42;;;;;;;;;;;;;;;16.38;50.30;99907.53;4397517;32;19997;-70
2022/05/11 00:39:07;;;;;;;;;;;;;;;16.39;50.46;99903.41;4396252;32;19990;-70
2022/05/11 00:41:33;;;;;;;;;;;;;;;16.70;49.78;99889.31;4396591;32;20016;-70
2022/05/11 00:43:59;;;;;;;;;;;;;;;16.68;49.90;99878.44;4396660;32;21127;-70
2022/05/11 00:49:49;;;;;;;;;;;;;;;16.41;51.01;99886.66;3952266;32;15844631;-70
2022/05/11 00:54:42;;;;;;;;;;;;;;;17.21;49.51;99892.88;3948681;32;15727599;-69
2022/05/11 00:57:12;;;;;;;;;;;;;;;17.21;49.51;99892.88;4424388;32;19974;-70
2022/05/11 00:59:42;;;;;;;;;;;;;;;16.89;49.66;99877.09;4420583;32;20327;-70
2022/05/11 01:02:08;;;;;;;;;;;;;;;16.91;49.72;99874.53;4422399;32;19965;-70
2022/05/11 01:04:37;;;;;;;;;;;;;;;16.83;49.99;99875.50;4422772;32;20679;-70
2022/05/11 01:07:04;;;;;;;;;;;;;;;16.67;50.39;99876.91;4422857;32;19965;-70
2022/05/11 01:09:30;;;;;;;;;;;;;;;16.15;51.90;99869.56;4423820;32;20687;-70
2022/05/11 01:11:57;;;;;;;;;;;;;;;16.29;51.61;99857.31;4420799;32;19972;-70
2022/05/11 01:14:25;;;;;;;;;;;;;;;16.24;51.58;99863.75;4406767;32;19994;-70
2022/05/11 01:16:50;;;;;;;;;;;;;;;15.82;52.83;99861.41;4421640;32;19970;-70
2022/05/11 01:19:33;;;;;;;;;;;;;;;16.18;52.13;99859.25;4423761;32;19945;-70
2022/05/11 01:22:03;;;;;;;;;;;;;;;15.93;52.60;99860.78;4422188;32;19986;-70
2022/05/11 01:24:32;;;;;;;;;;;;;;;16.02;52.38;99855.72;4422688;32;19989;-70
2022/05/11 01:26:58;;;;;;;;;;;;;;;15.92;52.72;99851.47;4409128;32;20093;-70
2022/05/11 01:29:24;;;;;;;;;;;;;;;15.71;53.13;99846.28;4425363;32;20016;-70
2022/05/11 01:31:50;;;;;;;;;;;;;;;15.80;53.22;99852.59;4422289;32;21101;-70
2022/05/11 01:34:20;;;;;;;;;;;;;;;15.86;53.05;99852.66;4421584;32;20043;-70
2022/05/11 01:36:46;;;;;;;;;;;;;;;15.58;53.84;99843.00;4422757;32;20005;-70
2022/05/11 01:39:11;;;;;;;;;;;;;;;15.61;53.81;99842.81;4420887;32;20047;-70
2022/05/11 01:41:39;;;;;;;;;;;;;;;15.55;54.02;99826.97;4422139;32;20349;-70
2022/05/11 01:44:07;;;;;;;;;;;;;;;15.84;53.05;99818.34;4422319;32;20004;-70
2022/05/11 01:46:33;;;;;;;;;;;;;;;15.56;53.91;99820.81;4422640;32;20387;-70
2022/05/11 01:48:58;;;;;;;;;;;;;;;15.58;54.03;99814.62;4421203;32;20011;-70
2022/05/11 01:51:24;;;;;;;;;;;;;;;15.43;54.48;99806.19;4422860;32;20000;-70
2022/05/11 01:53:49;;;;;;;;;;;;;;;15.75;53.88;99807.16;4421029;32;20362;-70
2022/05/11 01:56:16;;;;;;;;;;;;;;;16.33;52.02;99814.53;4421089;32;19975;-70
2022/05/11 01:58:42;;;;;;;;;;;;;;;15.58;53.90;99815.44;4423418;32;20454;-69
2022/05/11 02:01:07;;;;;;;;;;;;;;;15.54;54.34;99816.91;4422559;32;20008;-70
2022/05/11 02:03:33;;;;;;;;;;;;;;;15.52;54.43;99808.91;4421268;32;20001;-71
2022/05/11 02:08:45;;;;;;;;;;;;;;;15.19;55.51;99813.28;4413648;32;20008;-71
2022/05/11 02:11:11;;;;;;;;;;;;;;;15.16;55.71;99811.44;4412041;32;19989;-71
2022/05/11 02:13:37;;;;;;;;;;;;;;;15.18;55.77;99814.53;4414915;32;19985;-71
2022/05/11 02:16:03;;;;;;;;;;;;;;;15.17;55.76;99813.78;4410450;32;20035;-71
2022/05/11 02:18:29;;;;;;;;;;;;;;;15.68;54.52;99814.00;4412223;32;20011;-71
2022/05/11 02:20:55;;;;;;;;;;;;;;;15.17;55.74;99805.28;4410608;32;20310;-71
2022/05/11 02:23:21;;;;;;;;;;;;;;;15.14;55.94;99806.25;4411235;32;20385;-71
2022/05/11 02:25:48;;;;;;;;;;;;;;;15.19;55.83;99793.44;4410808;32;20424;-71
2022/05/11 02:28:14;;;;;;;;;;;;;;;15.23;55.67;99811.81;4412935;32;19977;-71
2022/05/11 02:30:40;;;;;;;;;;;;;;;15.23;55.83;99803.31;4413626;32;20016;-71
2022/05/11 02:33:06;;;;;;;;;;;;;;;15.33;55.60;99784.91;4411340;32;20194;-71
2022/05/11 02:35:32;;;;;;;;;;;;;;;15.24;55.74;99782.19;4412002;32;20030;-70
2022/05/11 02:37:59;;;;;;;;;;;;;;;15.16;56.24;99788.78;4409872;32;20021;-70
2022/05/11 02:40:26;;;;;;;;;;;;;;;15.30;55.96;99779.44;4412073;32;19997;-70
2022/05/11 02:42:52;;;;;;;;;;;;;;;15.20;56.25;99778.00;4410606;32;20098;-71
2022/05/11 02:45:18;;;;;;;;;;;;;;;15.19;56.38;99782.13;4413473;32;20354;-71
2022/05/11 02:47:44;;;;;;;;;;;;;;;15.20;56.53;99780.84;4409920;32;19991;-71
2022/05/11 02:50:10;;;;;;;;;;;;;;;15.16;56.61;99791.59;4410434;32;20310;-71
2022/05/11 02:52:36;;;;;;;;;;;;;;;15.46;56.27;99785.34;4410572;32;20065;-70
2022/05/11 02:55:02;;;;;;;;;;;;;;;15.12;56.83;99785.34;4410415;32;20651;-70
2022/05/11 02:57:28;;;;;;;;;;;;;;;15.15;56.86;99784.34;4397393;32;19972;-70
2022/05/11 02:59:53;;;;;;;;;;;;;;;15.24;56.78;99784.22;4410413;32;21068;-70
2022/05/11 03:02:21;;;;;;;;;;;;;;;15.33;56.53;99782.06;4408051;32;19997;-70
2022/05/11 03:04:47;;;;;;;;;;;;;;;15.30;56.47;99785.88;4410202;32;20566;-70
2022/05/11 03:07:13;;;;;;;;;;;;;;;15.21;56.95;99763.34;4410326;32;19996;-70
2022/05/11 03:09:38;;;;;;;;;;;;;;;15.11;57.24;99761.91;4412180;32;20026;-70
2022/05/11 03:12:04;;;;;;;;;;;;;;;15.15;57.22;99762.47;4397692;32;19958;-70
2022/05/11 03:14:30;;;;;;;;;;;;;;;15.18;56.98;99766.38;4412143;32;20386;-70
2022/05/11 03:16:56;;;;;;;;;;;;;;;15.14;57.23;99765.78;4411215;32;19997;-70
2022/05/11 03:19:21;;;;;;;;;;;;;;;14.99;57.94;99756.56;4411170;32;20433;-70
2022/05/11 03:21:48;;;;;;;;;;;;;;;15.07;57.64;99755.66;4410487;32;20019;-70
2022/05/11 03:24:13;;;;;;;;;;;;;;;15.00;57.99;99753.22;4411812;32;20396;-71
2022/05/11 03:26:39;;;;;;;;;;;;;;;15.04;58.03;99755.88;4412056;32;20465;-71
2022/05/11 03:29:05;;;;;;;;;;;;;;;14.84;58.87;99767.91;4411160;32;19969;-71
2022/05/11 03:31:32;;;;;;;;;;;;;;;14.83;59.13;99754.25;4412694;32;20519;-71
2022/05/11 03:36:42;;;;;;;;;;;;;;;14.87;59.38;99752.00;4411584;32;20004;-71
2022/05/11 03:39:08;;;;;;;;;;;;;;;14.80;59.42;99753.19;4411213;32;20012;-70
2022/05/11 03:41:33;;;;;;;;;;;;;;;14.87;59.58;99747.13;4411459;32;20015;-71
2022/05/11 03:43:59;;;;;;;;;;;;;;;14.95;59.79;99748.28;4411232;32;20372;-71
2022/05/11 03:46:25;;;;;;;;;;;;;;;14.96;60.06;99757.53;4409319;32;19978;-71
2022/05/11 03:48:50;;;;;;;;;;;;;;;14.80;60.58;99736.19;4412069;32;20452;-70
2022/05/11 03:51:16;;;;;;;;;;;;;;;14.79;60.73;99740.28;4413249;32;19980;-70
2022/05/11 03:53:42;;;;;;;;;;;;;;;15.01;60.24;99737.81;4409729;32;20008;-70
2022/05/11 03:56:07;;;;;;;;;;;;;;;14.65;61.51;99735.44;4410475;32;20012;-70
2022/05/11 03:58:33;;;;;;;;;;;;;;;15.21;60.04;99728.53;4408834;32;20078;-70
2022/05/11 04:00:59;;;;;;;;;;;;;;;14.47;61.83;99734.84;4411645;32;19961;-70
2022/05/11 04:03:24;;;;;;;;;;;;;;;14.48;62.27;99719.47;4409189;32;19973;-70
2022/05/11 04:05:50;;;;;;;;;;;;;;;14.41;62.90;99719.84;4410211;32;20342;-70
2022/05/11 04:08:15;;;;;;;;;;;;;;;14.36;62.88;99724.13;4413826;32;19965;-70
2022/05/11 04:10:41;;;;;;;;;;;;;;;14.39;62.74;99722.38;4410525;32;20047;-70
2022/05/11 04:13:08;;;;;;;;;;;;;;;14.35;62.77;99719.75;4409624;32;20430;-70
2022/05/11 04:15:33;;;;;;;;;;;;;;;14.41;63.03;99711.34;4408851;32;19997;-70
2022/05/11 04:17:59;;;;;;;;;;;;;;;14.48;62.87;99713.78;4408663;32;20343;-70
2022/05/11 04:20:24;;;;;;;;;;;;;;;14.58;62.09;99707.53;4408849;32;19962;-70
2022/05/11 04:22:50;;;;;;;;;;;;;;;14.69;61.69;99701.25;4406591;32;20571;-70
2022/05/11 04:25:16;;;;;;;;;;;;;;;14.77;61.01;99708.06;4409251;32;20591;-70
2022/05/11 04:27:44;;;;;;;;;;;;;;;14.87;61.15;99689.66;4410114;32;20004;-70
2022/05/11 04:30:10;;;;;;;;;;;;;;;14.92;60.41;99698.28;4409347;32;19979;-70
2022/05/11 04:32:36;;;;;;;;;;;;;;;14.97;60.45;99706.06;4410562;32;19984;-70
2022/05/11 04:35:02;;;;;;;;;;;;;;;14.82;60.76;99696.81;4408198;32;20036;-70
2022/05/11 04:37:27;;;;;;;;;;;;;;;14.79;60.78;99697.81;4409205;32;20382;-70
2022/05/11 04:39:53;;;;;;;;;;;;;;;14.86;60.87;99685.28;4410280;32;20030;-70
2022/05/11 04:42:18;;;;;;;;;;;;;;;14.90;60.35;99685.84;4410058;32;20003;-70
2022/05/11 04:44:44;;;;;;;;;;;;;;;14.84;60.78;99685.00;4411933;32;20001;-70
2022/05/11 04:47:10;;;;;;;;;;;;;;;14.83;61.03;99691.94;4404208;32;20546;-70
2022/05/11 04:49:36;;;;;;;;;;;;;;;14.81;61.41;99700.12;4410964;32;20049;-70
2022/05/11 04:52:07;;;;;;;;;;;;;;;14.80;61.79;99688.06;4409444;32;20004;-70
2022/05/11 04:54:37;;;;;;;;;;;;;;;14.76;61.67;99690.28;4410092;32;20065;-70
2022/05/11 04:57:03;;;;;;;;;;;;;;;14.62;62.68;99690.31;4410358;32;20449;-70
2022/05/11 04:59:28;;;;;;;;;;;;;;;14.58;63.14;99687.72;4410099;32;20357;-70
2022/05/11 05:01:54;;;;;;;;;;;;;;;14.61;63.50;99685.94;4407936;32;20385;-70
2022/05/11 05:04:20;;;;;;;;;;;;;;;14.47;64.26;99690.34;4410765;32;20278;-70
2022/05/11 05:06:45;;;;;;;;;;;;;;;14.36;65.04;99700.72;4410539;32;20003;-70
2022/05/11 05:09:11;;;;;;;;;;;;;;;14.44;64.54;99707.53;4408691;32;20004;-70
2022/05/11 05:11:37;;;;;;;;;;;;;;;14.34;65.67;99697.59;4408745;32;20527;-70
2022/05/11 05:14:04;;;;;;;;;;;;;;;14.27;65.98;99698.78;4411170;32;20030;-70
2022/05/11 05:16:31;;;;;;;;;;;;;;;14.17;66.91;99690.84;4411819;32;19997;-69
2022/05/11 05:18:59;;;;;;;;;;;;;;;14.21;67.28;99683.72;4409080;32;20622;-69
2022/05/11 05:21:24;;;;;;;;;;;;;;;14.18;67.84;99692.41;4410046;32;19953;-70
2022/05/11 05:23:50;;;;;;;;;;;;;;;14.22;68.56;99681.66;4408331;32;20035;-70
2022/05/11 05:26:15;;;;;;;;;;;;;;;14.26;68.46;99687.97;4411114;32;19961;-70
2022/05/11 05:31:30;;;;;;;;;;;;;;;14.18;68.82;99675.44;4409172;32;20029;-69
2022/05/11 05:33:59;;;;;;;;;;;;;;;14.22;69.06;99668.31;4406542;32;19989;-69
2022/05/11 05:36:26;;;;;;;;;;;;;;;14.17;69.58;99673.87;4409678;32;20016;-69
2022/05/11 05:38:51;;;;;;;;;;;;;;;14.08;70.25;99678.34;4408222;32;20042;-69
2022/05/11 05:41:16;;;;;;;;;;;;;;;14.15;70.19;99687.72;4411219;32;21211;-69
2022/05/11 05:43:42;;;;;;;;;;;;;;;14.71;68.35;99696.66;4413003;32;20087;-69
2022/05/11 05:46:07;;;;;;;;;;;;;;;14.48;69.27;99674.16;4411295;32;19997;-69
2022/05/11 05:48:33;;;;;;;;;;;;;;;14.55;69.64;99685.88;4415197;32;19969;-69
2022/05/11 05:51:15;;;;;;;;;;;;;;;14.96;67.74;99676.16;4410639;32;19972;-69
2022/05/11 05:53:40;;;;;;;;;;;;;;;15.08;67.08;99679.94;4411648;32;19986;-69
2022/05/11 05:56:07;;;;;;;;;;;;;;;14.52;69.48;99681.19;4412299;32;19977;-69
2022/05/11 05:58:33;;;;;;;;;;;;;;;14.50;69.90;99669.56;4414558;32;20484;-69
2022/05/11 06:00:58;;;;;;;;;;;;;;;14.48;70.24;99674.94;4413465;32;20012;-69
2022/05/11 06:03:27;;;;;;;;;;;;;;;14.67;69.90;99681.16;4408344;32;20038;-69
2022/05/11 06:05:52;;;;;;;;;;;;;;;14.53;70.22;99698.94;4409955;32;20027;-69
2022/05/11 06:08:19;;;;;;;;;;;;;;;14.38;70.50;99693.28;4412273;32;19965;-69
2022/05/11 06:10:46;;;;;;;;;;;;;;;14.50;70.70;99682.94;4408936;32;20401;-69
2022/05/11 06:13:12;;;;;;;;;;;;;;;14.61;70.74;99681.06;4412147;32;20008;-69
2022/05/11 06:15:39;;;;;;;;;;;;;;;14.65;70.87;99689.34;4409627;32;19971;-69
2022/05/11 06:18:06;;;;;;;;;;;;;;;14.65;70.97;99681.63;4412371;32;19989;-69
2022/05/11 06:20:31;;;;;;;;;;;;;;;14.76;70.20;99686.69;4412775;32;19953;-69
2022/05/11 06:22:57;;;;;;;;;;;;;;;14.69;70.39;99682.22;4411249;32;19976;-69
2022/05/11 06:25:23;;;;;;;;;;;;;;;14.94;70.33;99683.63;4409446;32;20460;-69
2022/05/11 06:27:48;;;;;;;;;;;;;;;15.06;70.11;99685.31;4411198;32;20422;-69
2022/05/11 06:30:14;;;;;;;;;;;;;;;14.94;69.62;99683.63;4411218;32;19992;-69
2022/05/11 06:32:39;;;;;;;;;;;;;;;14.81;69.84;99686.75;4410053;32;19993;-69
2022/05/11 06:35:05;;;;;;;;;;;;;;;14.87;71.18;99681.19;4401036;32;20043;-69
2022/05/11 06:37:30;;;;;;;;;;;;;;;15.00;69.99;99682.41;4398685;32;20478;-69
2022/05/11 06:39:56;;;;;;;;;;;;;;;15.05;69.76;99684.53;4409514;32;19964;-70
2022/05/11 06:42:22;;;;;;;;;;;;;;;15.29;69.35;99685.12;4406493;32;20187;-70
2022/05/11 06:44:49;;;;;;;;;;;;;;;15.38;70.33;99675.72;4401646;32;20008;-70
2022/05/11 06:47:15;;;;;;;;;;;;;;;15.40;68.92;99678.84;4405838;32;19983;-70
2022/05/11 06:49:40;;;;;;;;;;;;;;;15.22;68.67;99681.94;4400784;32;19953;-70
2022/05/11 06:52:09;;;;;;;;;;;;;;;15.30;69.05;99683.03;4395754;32;20045;-70
2022/05/11 07:00:06;;;;;;;;;;;;;;;15.26;69.43;99694.63;4403494;32;19993;-70
2022/05/11 07:02:34;;;;;;;;;;;;;;;15.27;69.77;99690.50;4394564;32;20005;-70
2022/05/11 07:05:00;;;;;;;;;;;;;;;15.33;70.19;99687.72;4397658;32;19980;-69
2022/05/11 07:07:25;;;;;;;;;;;;;;;15.43;69.60;99681.44;4399920;32;20798;-69
2022/05/11 07:09:52;;;;;;;;;;;;;;;15.36;68.95;99693.19;4393913;32;20326;-70
2022/05/11 07:12:17;;;;;;;;;;;;;;;15.36;68.68;99695.25;4376744;32;19981;-70
2022/05/11 07:14:44;;;;;;;;;;;;;;;15.38;69.91;99693.53;4394476;32;20005;-70
2022/05/11 07:17:11;;;;;;;;;;;;;;;15.53;69.12;99694.19;4401489;32;20032;-70
2022/05/11 07:19:42;;;;;;;;;;;;;;;15.60;69.17;99705.13;4402272;32;19993;-70
2022/05/11 07:22:07;;;;;;;;;;;;;;;15.68;68.85;99705.47;4398071;32;19954;-70
2022/05/11 07:24:33;;;;;;;;;;;;;;;15.80;68.42;99704.28;4394042;32;20146;-69
2022/05/11 07:27:00;;;;;;;;;;;;;;;15.69;68.01;99702.13;4392647;32;20394;-70
2022/05/11 07:29:26;;;;;;;;;;;;;;;15.68;68.39;99702.63;4394326;32;20197;-70
2022/05/11 07:31:51;;;;;;;;;;;;;;;15.60;68.76;99701.50;4391765;32;20494;-70
2022/05/11 07:34:17;;;;;;;;;;;;;;;15.68;68.98;99699.81;4401461;32;19997;-71
2022/05/11 07:36:43;;;;;;;;;;;;;;;15.72;68.83;99711.69;4402102;32;20068;-71
2022/05/11 07:39:09;;;;;;;;;;;;;;;15.63;68.20;99709.81;4401798;32;20406;-71
2022/05/11 07:41:35;;;;;;;;;;;;;;;15.62;69.07;99711.06;4385053;32;20052;-70
2022/05/11 07:44:00;;;;;;;;;;;;;;;15.58;68.62;99713.34;4404679;32;20054;-71
2022/05/11 07:46:33;;;;;;;;;;;;;;;15.53;68.97;99725.38;4403520;32;20231;-71
2022/05/11 07:49:01;;;;;;;;;;;;;;;15.65;68.92;99709.31;4405248;32;20049;-72
2022/05/11 07:51:27;;;;;;;;;;;;;;;15.62;69.96;99722.41;4403964;32;20001;-71
2022/05/11 07:53:53;;;;;;;;;;;;;;;15.78;68.82;99718.22;4399482;32;20306;-72
2022/05/11 08:01:49;;;;;;;;;;;;;;;15.79;67.79;99722.59;4398659;32;19961;-71
2022/05/11 08:04:15;;;;;;;;;;;;;;;15.94;68.39;99717.63;4384097;32;20327;-71
2022/05/11 08:06:41;;;;;;;;;;;;;;;16.37;67.34;99722.16;4402413;32;20012;-71
2022/05/11 08:09:07;;;;;;;;;;;;;;;16.24;67.90;99730.31;4399791;32;20125;-71
2022/05/11 08:11:33;;;;;;;;;;;;;;;16.28;67.15;99715.88;4403001;32;20013;-71
2022/05/11 08:13:59;;;;;;;;;;;;;;;16.38;66.95;99723.72;4397904;32;19997;-70
2022/05/11 08:16:26;;;;;;;;;;;;;;;16.23;66.91;99725.91;4397404;32;20079;-70
2022/05/11 08:18:52;;;;;;;;;;;;;;;16.22;68.18;99724.34;4399646;32;20728;-70
2022/05/11 08:21:19;;;;;;;;;;;;;;;16.50;68.34;99730.31;4402037;32;19972;-70
2022/05/11 08:23:45;;;;;;;;;;;;;;;16.77;67.87;99724.06;4402590;32;19979;-70
2022/05/11 08:26:10;;;;;;;;;;;;;;;16.88;67.32;99727.00;4404180;32;21046;-69
2022/05/11 08:28:37;;;;;;;;;;;;;;;17.03;64.98;99727.63;4401719;32;20001;-69
2022/05/11 08:33:48;;;;;;;;;;;;;;;16.96;65.55;99733.75;4401562;32;19957;-71
2022/05/11 08:36:16;;;;;;;;;;;;;;;17.10;63.90;99730.00;4396095;32;20092;-71
2022/05/11 08:38:43;;;;;;;;;;;;;;;17.32;65.05;99719.53;4404497;32;19966;-71
2022/05/11 08:41:18;;;;;;;;;;;;;;;17.52;64.63;99722.22;4400430;32;20442;-71
2022/05/11 08:43:45;;;;;;;;;;;;;;;18.03;64.02;99723.94;4390380;32;19993;-70
2022/05/11 08:46:20;;;;;;;;;;;;;;;18.35;60.49;99724.53;4403625;32;20063;-71
2022/05/11 08:49:03;;;;;;;;;;;;;;;18.34;60.87;99725.81;4403758;32;20001;-72
2022/05/11 08:51:32;;;;;;;;;;;;;;;17.72;62.72;99721.28;4403406;32;20390;-72
2022/05/11 08:54:18;;;;;;;;;;;;;;;18.49;61.02;99724.31;4400334;32;19981;-73
2022/05/11 08:56:43;;;;;;;;;;;;;;;17.91;61.63;99713.81;4402476;32;20021;-73
2022/05/11 08:59:13;;;;;;;;;;;;;;;18.27;62.51;99712.88;4389475;32;20812;-72
2022/05/11 09:01:45;;;;;;;;;;;;;;;18.57;61.01;99713.97;4402925;32;20421;-73
2022/05/11 09:04:13;;;;;;;;;;;;;;;18.46;61.08;99716.00;4397856;32;20261;-72
2022/05/11 09:06:43;;;;;;;;;;;;;;;18.43;63.23;99709.28;4402762;32;20009;-72
2022/05/11 09:09:10;;;;;;;;;;;;;;;18.13;61.31;99708.16;4401731;32;19993;-71
2022/05/11 09:11:46;;;;;;;;;;;;;;;17.90;62.69;99712.28;4400350;32;20439;-70
2022/05/11 09:14:13;;;;;;;;;;;;;;;17.71;63.29;99711.19;4397887;32;20001;-70
2022/05/11 09:16:43;;;;;;;;;;;;;;;17.43;63.43;99707.47;4403900;32;19958;-70
2022/05/11 09:19:13;;;;;;;;;;;;;;;17.92;59.41;99708.91;4400489;32;20000;-70
2022/05/11 09:21:39;;;;;;;;;;;;;;;17.33;62.79;99715.38;4389855;32;20027;-70
2022/05/11 09:24:22;;;;;;;;;;;;;;;17.44;60.89;99717.53;4404805;32;19976;-71
2022/05/11 09:27:00;;;;;;;;;;;;;;;16.66;63.38;99696.34;4403686;32;20549;-70
2022/05/11 09:29:31;;;;;;;;;;;;;;;17.15;61.87;99710.13;4405222;32;20005;-70
2022/05/11 09:32:19;;;;;;;;;;;;;;;17.10;61.99;99708.03;4402641;32;20386;-70
2022/05/11 09:34:44;;;;;;;;;;;;;;;17.10;60.81;99716.56;4389920;32;20335;-70
2022/05/11 09:37:30;;;;;;;;;;;;;;;16.37;63.50;99718.53;4405265;32;19996;-70
2022/05/11 09:40:03;;;;;;;;;;;;;;;16.31;64.17;99714.88;4406618;32;20630;-69
2022/05/11 09:42:30;;;;;;;;;;;;;;;16.11;65.56;99712.13;4404538;32;19996;-69
2022/05/11 09:44:57;;;;;;;;;;;;;;;16.00;64.69;99715.62;4403059;32;20650;-69
2022/05/11 09:47:25;;;;;;;;;;;;;;;16.02;65.91;99713.06;4403750;32;20016;-70
2022/05/11 09:49:51;;;;;;;;;;;;;;;15.98;66.22;99716.12;4404417;32;19993;-68
2022/05/11 09:52:34;;;;;;;;;;;;;;;16.01;65.17;99700.12;4403244;32;20574;-68
2022/05/11 09:55:00;;;;;;;;;;;;;;;16.21;66.15;99699.31;4404877;32;20090;-69
2022/05/11 09:57:28;;;;;;;;;;;;;;;16.19;64.04;99707.53;4406477;32;20080;-69
2022/05/11 10:00:13;;;;;;;;;;;;;;;16.36;64.56;99695.06;4405802;32;20034;-69
2022/05/11 10:02:41;;;;;;;;;;;;;;;16.54;63.56;99691.88;4403804;32;20482;-69
2022/05/11 10:05:11;;;;;;;;;;;;;;;17.04;60.93;99687.31;4406580;32;20035;-69
2022/05/11 10:07:56;;;;;;;;;;;;;;;16.96;61.34;99686.22;4402928;32;21116;-69
2022/05/11 10:10:42;;;;;;;;;;;;;;;16.51;61.65;99669.41;4405724;32;19997;-69
2022/05/11 10:24:06;;;;;;;;;;;;;;;16.85;60.27;99671.19;3941607;32;15723416;-70
2022/05/11 10:26:46;;;;;;;;;;;;;;;16.85;60.27;99671.19;4418565;32;20027;-70
2022/05/11 10:29:24;;;;;;;;;;;;;;;16.44;62.40;99667.78;4420518;32;20009;-70
2022/05/11 10:31:58;;;;;;;;;;;;;;;16.41;61.62;99653.81;4417816;32;20420;-72
2022/05/11 10:34:44;;;;;;;;;;;;;;;16.64;60.90;99664.06;4418780;32;20046;-70
2022/05/11 10:37:15;;;;;;;;;;;;;;;16.39;60.10;99659.19;4415609;32;19950;-71
2022/05/11 10:42:35;;;;;;;;;;;;;;;17.52;62.24;99659.63;3952136;31;15717006;-70
2022/05/11 10:50:40;;;;;;;;;;;;;;;18.94;61.40;99653.78;3901988;32;15722476;-69
2022/05/11 10:56:09;;;;;;;;;;;;;;;18.55;58.29;99655.91;3939830;32;15722421;-70
2022/05/11 10:58:56;;;;;;;;;;;;;;;18.55;58.29;99655.91;4425191;32;19986;-70
2022/05/11 11:01:24;;;;;;;;;;;;;;;18.11;58.57;99650.97;4422947;32;21231;-70
2022/05/11 11:04:09;;;;;;;;;;;;;;;18.61;57.29;99653.84;4425825;32;20408;-70
2022/05/11 11:07:21;;;;;;;;;;;;;;;18.54;56.41;99657.22;4421030;32;20418;-69
2022/05/11 11:09:38;;;;;;;;;;;;;;;18.81;56.50;99647.88;4425158;32;20384;-69
2022/05/11 11:14:44;;;;;;;;;;;;;;;19.43;55.99;99650.78;3935970;31;15813988;-70
2022/05/11 11:17:14;;;;;;;;;;;;;;;19.43;55.99;99650.78;4409242;32;20017;-70
2022/05/11 11:19:44;;;;;;;;;;;;;;;19.25;55.92;99647.72;4404815;32;19965;-70
2022/05/11 11:22:09;;;;;;;;;;;;;;;19.44;49.90;99646.66;4404922;32;19993;-69
2022/05/11 11:24:36;;;;;;;;;;;;;;;19.83;51.76;99644.34;4405587;32;20082;-69
2022/05/11 11:27:06;;;;;;;;;;;;;;;20.02;47.43;99647.34;4407906;32;20027;-69
2022/05/11 11:29:58;;;;;;;;;;;;;;;19.91;47.66;99644.53;4408526;32;20010;-70
2022/05/11 11:32:24;;;;;;;;;;;;;;;19.94;48.75;99639.88;4406302;32;20396;-70
2022/05/11 11:35:11;;;;;;;;;;;;;;;19.27;46.81;99651.63;4406760;32;20006;-69
2022/05/11 11:37:39;;;;;;;;;;;;;;;18.97;47.36;99642.13;4407891;32;19953;-70
2022/05/11 11:40:21;;;;;;;;;;;;;;;18.57;48.94;99639.09;4406459;32;20056;-70
2022/05/11 11:42:47;;;;;;;;;;;;;;;18.50;51.19;99645.31;4404893;32;20416;-70
2022/05/11 11:45:33;;;;;;;;;;;;;;;18.25;52.12;99637.78;4403027;32;20027;-70
2022/05/11 11:48:18;;;;;;;;;;;;;;;18.81;49.46;99640.06;4406690;32;20637;-70
2022/05/11 11:50:46;;;;;;;;;;;;;;;19.36;47.03;99639.94;4408444;32;20587;-70
2022/05/11 11:53:21;;;;;;;;;;;;;;;19.73;45.52;99634.53;4409825;32;19964;-70
2022/05/11 11:55:48;;;;;;;;;;;;;;;19.67;46.76;99644.47;4407406;32;20289;-70
2022/05/11 11:58:19;;;;;;;;;;;;;;;19.20;46.11;99631.41;4407979;32;20034;-70
2022/05/11 12:03:23;;;;;;;;;;;;;;;18.06;49.89;99648.13;3935545;32;15897485;-69
2022/05/11 12:05:51;;;;;;;;;;;;;;;18.06;49.89;99648.13;4418803;32;20004;-69
2022/05/11 12:16:54;;;;;;;;;;;;;;;17.31;51.63;99620.50;4416966;32;20028;-69
2022/05/11 12:19:21;;;;;;;;;;;;;;;16.80;53.32;99620.78;4416640;32;20070;-69
2022/05/11 12:24:39;;;;;;;;;;;;;;;17.04;51.57;99609.78;3939876;32;15723918;-69
2022/05/11 12:27:06;;;;;;;;;;;;;;;17.04;51.57;99609.78;4426369;32;20349;-70
2022/05/11 12:30:04;;;;;;;;;;;;;;;16.57;54.10;99599.97;4426068;32;19997;-70
2022/05/11 12:32:22;;;;;;;;;;;;;;;16.81;53.57;99603.22;4423987;32;19997;-70
2022/05/11 12:34:48;;;;;;;;;;;;;;;17.05;52.74;99603.59;4428079;32;20000;-70
2022/05/11 12:37:31;;;;;;;;;;;;;;;17.95;50.83;99609.06;4426947;32;19957;-70
2022/05/11 12:40:00;;;;;;;;;;;;;;;18.25;49.25;99601.53;4428180;32;20034;-69
2022/05/11 12:42:28;;;;;;;;;;;;;;;18.43;48.54;99606.72;4423192;32;20447;-69
2022/05/11 12:44:54;;;;;;;;;;;;;;;18.92;49.10;99607.91;4428134;32;19992;-70
2022/05/11 12:47:20;;;;;;;;;;;;;;;19.25;47.39;99600.03;4428786;32;20007;-70
2022/05/11 12:49:47;;;;;;;;;;;;;;;19.42;46.46;99595.03;4430819;32;19953;-70
2022/05/11 12:52:15;;;;;;;;;;;;;;;19.51;47.42;99593.94;4424879;32;19957;-69
2022/05/11 12:54:53;;;;;;;;;;;;;;;19.91;46.04;99598.88;4426990;32;20064;-69
2022/05/11 12:57:19;;;;;;;;;;;;;;;20.17;45.32;99584.94;4412469;32;20280;-69
2022/05/11 12:59:54;;;;;;;;;;;;;;;20.59;43.92;99578.56;4425243;32;19996;-69
2022/05/11 13:02:26;;;;;;;;;;;;;;;20.87;45.61;99584.78;4424938;32;19957;-69
2022/05/11 13:04:54;;;;;;;;;;;;;;;20.94;42.92;99571.94;4427347;32;19964;-69
2022/05/11 13:07:22;;;;;;;;;;;;;;;21.19;44.49;99562.81;4428147;32;19952;-69
2022/05/11 13:09:56;;;;;;;;;;;;;;;21.74;41.80;99569.09;4427387;32;19993;-70
2022/05/11 13:12:22;;;;;;;;;;;;;;;22.02;39.50;99578.00;4425711;32;20028;-70
2022/05/11 13:14:51;;;;;;;;;;;;;;;22.41;39.18;99566.66;4429961;32;20381;-69
2022/05/11 13:17:20;;;;;;;;;;;;;;;22.62;37.46;99585.59;4427339;32;20342;-70
2022/05/11 13:19:52;;;;;;;;;;;;;;;22.63;36.45;99575.69;4427478;32;20008;-71
2022/05/11 13:22:22;;;;;;;;;;;;;;;22.12;36.27;99579.91;4427306;32;19977;-70
2022/05/11 13:24:49;;;;;;;;;;;;;;;22.04;37.89;99592.56;4427877;32;20025;-69
2022/05/11 13:30:25;;;;;;;;;;;;;;;22.31;37.06;99597.09;3957716;31;15720493;-71
2022/05/11 13:32:55;;;;;;;;;;;;;;;22.31;37.06;99597.09;4439785;32;20406;-71
2022/05/11 13:48:42;;;;;;;;;;;;;;;24.31;33.50;99636.28;3969340;32;15728502;-70
2022/05/11 13:54:20;;;;;;;;;;;;;;;23.56;34.03;99639.28;3946095;32;15723279;-71
2022/05/11 13:57:02;;;;;;;;;;;;;;;23.58;34.02;99634.81;4422986;32;20400;-71
2022/05/11 13:59:29;;;;;;;;;;;;;;;23.70;33.53;99641.88;4421804;32;20035;-71
2022/05/11 14:01:56;;;;;;;;;;;;;;;24.78;32.33;99654.19;4422816;32;19996;-71
2022/05/11 14:04:24;;;;;;;;;;;;;;;24.31;32.48;99644.91;4420511;32;20049;-71
2022/05/11 14:09:28;;;;;;;;;;;;;;;25.26;32.21;99676.44;3967164;31;15717593;-69
2022/05/11 14:11:53;;;;;;;;;;;;;;;25.26;32.21;99676.44;4443848;32;19973;-69
2022/05/11 14:14:19;;;;;;;;;;;;;;;24.00;33.60;99680.41;4438262;32;20488;-71
2022/05/11 14:16:44;;;;;;;;;;;;;;;23.28;35.21;99670.44;4439883;32;19961;-70
2022/05/11 14:19:10;;;;;;;;;;;;;;;22.72;36.07;99675.63;4440716;32;20056;-70